createdAt,value
2023-06-27T00:02:07.548Z,100.00
2023-06-27T00:04:35.538Z,100.00
2023-06-27T00:07:03.679Z,100.00
2023-06-27T00:09:31.636Z,100.00
2023-06-27T00:11:59.393Z,100.00
2023-06-27T00:14:27.307Z,100.00
2023-06-27T00:16:55.109Z,100.00
2023-06-27T00:19:24.324Z,100.00
2023-06-27T00:21:52.201Z,100.00
2023-06-27T00:24:20.038Z,100.00
2023-06-27T00:26:47.851Z,100.00
2023-06-27T00:29:15.758Z,100.00
2023-06-27T00:31:43.652Z,100.00
2023-06-27T00:34:11.506Z,100.00
2023-06-27T00:36:41.165Z,100.00
2023-06-27T00:39:11.131Z,100.00
2023-06-27T00:41:38.923Z,100.00
2023-06-27T00:44:09.890Z,100.00
2023-06-27T00:46:42.087Z,100.00
2023-06-27T00:49:12.620Z,100.00
2023-06-27T00:51:44.000Z,100.00
2023-06-27T00:54:12.381Z,100.00
2023-06-27T00:56:40.814Z,100.00
2023-06-27T00:59:08.679Z,100.00
2023-06-27T01:01:37.165Z,100.00
2023-06-27T01:04:06.023Z,100.00
2023-06-27T01:06:50.632Z,100.00
2023-06-27T01:09:46.310Z,100.00
2023-06-27T01:12:49.991Z,100.00
2023-06-27T01:15:19.742Z,100.00
2023-06-27T01:17:48.414Z,100.00
2023-06-27T01:20:16.482Z,100.00
2023-06-27T01:22:52.901Z,100.00
2023-06-27T01:25:20.957Z,100.00
2023-06-27T01:27:48.776Z,100.00
2023-06-27T01:30:19.122Z,100.00
2023-06-27T01:33:06.539Z,100.00
2023-06-27T01:36:05.871Z,100.00
2023-06-27T01:39:00.614Z,100.00
2023-06-27T01:41:32.638Z,100.00
2023-06-27T01:44:21.538Z,100.00
2023-06-27T01:46:53.636Z,100.00
2023-06-27T01:49:23.471Z,100.00
2023-06-27T01:51:55.529Z,100.00
2023-06-27T01:54:23.494Z,100.00
2023-06-27T01:56:51.408Z,100.00
2023-06-27T01:59:19.432Z,100.00
2023-06-27T02:01:47.238Z,100.00
2023-06-27T02:04:15.000Z,100.00
2023-06-27T02:06:42.856Z,100.00
2023-06-27T02:09:13.333Z,100.00
2023-06-27T02:11:41.360Z,100.00
2023-06-27T02:14:09.372Z,100.00
2023-06-27T02:16:37.187Z,100.00
2023-06-27T02:19:05.260Z,100.00
2023-06-27T02:21:33.280Z,100.00
2023-06-27T02:24:01.540Z,100.00
2023-06-27T02:26:29.175Z,100.00
2023-06-27T02:28:57.068Z,100.00
2023-06-27T02:31:25.160Z,100.00
2023-06-27T02:33:52.960Z,100.00
2023-06-27T02:36:22.309Z,100.00
2023-06-27T02:38:50.836Z,100.00
2023-06-27T02:41:18.806Z,100.00
2023-06-27T02:43:46.713Z,100.00
2023-06-27T02:46:14.807Z,100.00
2023-06-27T02:48:42.642Z,100.00
2023-06-27T02:51:10.533Z,100.00
2023-06-27T02:53:38.472Z,100.00
2023-06-27T02:56:09.217Z,100.00
2023-06-27T02:58:39.475Z,100.00
2023-06-27T03:01:08.867Z,100.00
2023-06-27T03:03:41.010Z,100.00
2023-06-27T03:06:29.275Z,100.00
2023-06-27T03:08:56.994Z,100.00
2023-06-27T03:11:24.855Z,100.00
2023-06-27T03:13:52.678Z,100.00
2023-06-27T03:16:22.427Z,100.00
2023-06-27T03:18:50.243Z,100.00
2023-06-27T03:21:19.085Z,100.00
2023-06-27T03:23:46.998Z,100.00
2023-06-27T03:26:17.466Z,100.00
2023-06-27T03:28:45.382Z,100.00
2023-06-27T03:31:13.310Z,100.00
2023-06-27T03:33:42.494Z,100.00
2023-06-27T03:36:11.580Z,100.00
2023-06-27T03:38:41.601Z,100.00
2023-06-27T03:41:09.415Z,100.00
2023-06-27T03:43:38.779Z,100.00
2023-06-27T03:46:08.933Z,100.00
2023-06-27T03:48:36.798Z,100.00
2023-06-27T03:51:04.824Z,100.00
2023-06-27T03:53:35.214Z,100.00
2023-06-27T03:56:04.628Z,100.00
2023-06-27T03:58:34.101Z,100.00
2023-06-27T04:01:01.963Z,100.00
2023-06-27T04:03:29.821Z,100.00
2023-06-27T04:05:57.690Z,100.00
2023-06-27T04:08:27.503Z,100.00
2023-06-27T04:10:55.315Z,100.00
2023-06-27T04:13:23.179Z,100.00
2023-06-27T04:15:50.990Z,100.00
2023-06-27T04:18:18.767Z,100.00
2023-06-27T04:20:46.738Z,100.00
2023-06-27T04:23:15.248Z,100.00
2023-06-27T04:25:54.451Z,100.00
2023-06-27T04:28:23.464Z,100.00
2023-06-27T04:30:51.337Z,100.00
2023-06-27T04:33:19.199Z,100.00
2023-06-27T04:35:48.147Z,100.00
2023-06-27T04:38:16.188Z,100.00
2023-06-27T04:40:44.185Z,100.00
2023-06-27T04:43:12.448Z,100.00
2023-06-27T04:45:40.476Z,100.00
2023-06-27T04:48:08.546Z,100.00
2023-06-27T04:50:37.064Z,100.00
2023-06-27T04:53:05.137Z,100.00
2023-06-27T04:55:34.232Z,100.00
2023-06-27T04:58:02.190Z,100.00
2023-06-27T05:00:32.689Z,100.00
2023-06-27T05:03:00.558Z,100.00
2023-06-27T05:05:33.885Z,100.00
2023-06-27T05:08:06.084Z,100.00
2023-06-27T05:10:34.423Z,100.00
2023-06-27T05:13:02.739Z,100.00
2023-06-27T05:15:30.763Z,100.00
2023-06-27T05:18:15.260Z,100.00
2023-06-27T05:20:48.766Z,100.00
2023-06-27T05:23:16.521Z,100.00
2023-06-27T05:25:44.303Z,100.00
2023-06-27T05:28:12.137Z,100.00
2023-06-27T05:30:40.458Z,100.00
2023-06-27T05:33:08.300Z,100.00
2023-06-27T05:35:36.212Z,100.00
2023-06-27T05:38:04.013Z,100.00
2023-06-27T05:40:32.335Z,100.00
2023-06-27T05:43:00.136Z,100.00
2023-06-27T05:45:27.964Z,100.00
2023-06-27T05:47:55.839Z,100.00
2023-06-27T05:50:23.843Z,100.00
2023-06-27T05:52:51.659Z,100.00
2023-06-27T05:55:19.420Z,100.00
2023-06-27T05:57:47.284Z,100.00
2023-06-27T06:00:16.121Z,100.00
2023-06-27T06:02:46.996Z,100.00
2023-06-27T06:05:15.885Z,100.00
2023-06-27T06:07:45.994Z,100.00
2023-06-27T06:10:14.477Z,100.00
2023-06-27T06:12:44.482Z,100.00
2023-06-27T06:15:12.435Z,100.00
2023-06-27T06:17:40.007Z,100.00
2023-06-27T06:20:11.834Z,100.00
2023-06-27T06:22:40.235Z,100.00
2023-06-27T06:25:08.965Z,100.00
2023-06-27T06:27:36.822Z,100.00
2023-06-27T06:30:04.971Z,100.00
2023-06-27T06:32:34.692Z,97.50
2023-06-27T06:35:04.593Z,96.04
2023-06-27T06:37:32.288Z,96.21
2023-06-27T06:40:00.119Z,97.06
2023-06-27T06:42:27.781Z,95.74
2023-06-27T06:44:55.613Z,97.44
2023-06-27T06:47:23.319Z,92.74
2023-06-27T06:49:51.067Z,90.19
2023-06-27T06:52:18.722Z,90.46
2023-06-27T06:54:47.882Z,91.95
2023-06-27T06:57:15.509Z,89.01
2023-06-27T06:59:43.146Z,89.01
2023-06-27T07:02:10.825Z,83.33
2023-06-27T07:04:38.462Z,85.17
2023-06-27T07:07:06.971Z,85.26
2023-06-27T07:09:34.653Z,85.70
2023-06-27T07:12:02.465Z,81.73
2023-06-27T07:14:30.274Z,82.20
2023-06-27T07:16:57.994Z,82.21
2023-06-27T07:19:25.843Z,81.19
2023-06-27T07:21:53.460Z,80.82
2023-06-27T07:24:21.113Z,77.62
2023-06-27T07:26:48.846Z,74.08
2023-06-27T07:29:18.697Z,72.38
2023-06-27T07:31:46.349Z,64.79
2023-06-27T07:34:14.222Z,63.35
2023-06-27T07:36:42.079Z,65.29
2023-06-27T07:39:10.351Z,67.48
2023-06-27T07:41:38.156Z,65.86
2023-06-27T07:44:06.017Z,68.30
2023-06-27T07:46:33.641Z,65.20
2023-06-27T07:49:02.009Z,65.84
2023-06-27T07:51:32.272Z,68.69
2023-06-27T07:54:01.648Z,66.59
2023-06-27T07:56:29.296Z,69.53
2023-06-27T07:58:57.143Z,65.05
2023-06-27T08:01:24.815Z,65.20
2023-06-27T08:03:52.707Z,58.23
2023-06-27T08:06:20.802Z,55.88
2023-06-27T08:08:48.612Z,52.35
2023-06-27T08:11:16.271Z,49.34
2023-06-27T08:13:44.081Z,47.86
2023-06-27T08:16:12.415Z,53.01
2023-06-27T08:18:40.214Z,52.80
2023-06-27T08:21:07.895Z,50.50
2023-06-27T08:23:35.636Z,51.60
2023-06-27T08:26:03.650Z,57.41
2023-06-27T08:28:31.537Z,55.23
2023-06-27T08:30:59.463Z,53.92
2023-06-27T08:33:27.199Z,51.90
2023-06-27T08:35:55.805Z,50.95
2023-06-27T08:38:24.237Z,47.25
2023-06-27T08:40:56.880Z,54.19
2023-06-27T08:43:25.400Z,46.55
2023-06-27T08:45:55.781Z,48.50
2023-06-27T08:48:24.109Z,47.28
2023-06-27T08:50:57.453Z,47.20
2023-06-27T08:53:29.568Z,46.61
2023-06-27T08:56:12.260Z,47.00
2023-06-27T08:59:01.297Z,45.03
2023-06-27T09:01:32.637Z,46.44
2023-06-27T09:04:04.374Z,45.32
2023-06-27T09:06:32.595Z,45.27
2023-06-27T09:09:01.460Z,47.13
2023-06-27T09:11:29.833Z,44.49
2023-06-27T09:13:57.448Z,45.25
2023-06-27T09:16:25.908Z,44.46
2023-06-27T09:18:57.525Z,43.71
2023-06-27T09:21:25.747Z,43.71
2023-06-27T09:23:56.436Z,43.83
2023-06-27T09:26:28.808Z,41.78
2023-06-27T09:28:56.572Z,43.28
2023-06-27T09:31:24.953Z,43.36
2023-06-27T09:34:02.528Z,42.99
2023-06-27T09:39:14.238Z,45.50
2023-06-27T09:41:48.748Z,44.38
2023-06-27T09:44:26.464Z,44.94
2023-06-27T09:46:55.092Z,44.75
2023-06-27T09:49:26.009Z,43.11
2023-06-27T09:51:55.625Z,43.09
2023-06-27T09:54:24.555Z,43.34
2023-06-27T09:56:54.360Z,44.80
2023-06-27T09:59:25.774Z,44.46
2023-06-27T10:01:55.196Z,44.13
2023-06-27T10:06:57.400Z,42.58
2023-06-27T10:09:25.465Z,42.67
2023-06-27T10:11:53.861Z,44.06
2023-06-27T10:14:23.295Z,43.63
2023-06-27T10:16:53.561Z,46.57
2023-06-27T10:19:22.811Z,41.46
2023-06-27T10:21:50.719Z,40.25
2023-06-27T10:24:20.139Z,40.30
2023-06-27T10:26:59.018Z,41.25
2023-06-27T10:29:46.056Z,41.42
2023-06-27T10:32:18.781Z,40.38
2023-06-27T10:34:47.778Z,38.70
2023-06-27T10:37:28.193Z,40.85
2023-06-27T10:40:01.885Z,42.55
2023-06-27T10:42:32.704Z,42.80
2023-06-27T10:45:11.236Z,41.93
2023-06-27T10:47:44.666Z,40.42
2023-06-27T10:50:21.769Z,39.29
2023-06-27T10:53:10.617Z,40.61
2023-06-27T10:55:40.076Z,38.43
2023-06-27T10:58:15.516Z,39.55
2023-06-27T11:00:47.309Z,39.57
2023-06-27T11:03:22.776Z,39.26
2023-06-27T11:06:01.281Z,40.32
2023-06-27T11:08:31.587Z,37.48
2023-06-27T11:11:05.625Z,41.02
2023-06-27T11:13:42.824Z,37.03
2023-06-27T11:16:13.710Z,36.50
2023-06-27T11:19:04.990Z,38.44
2023-06-27T11:21:34.177Z,37.51
2023-06-27T11:24:03.161Z,36.92
2023-06-27T11:26:31.130Z,39.49
2023-06-27T11:29:05.294Z,39.37
2023-06-27T11:31:33.197Z,36.52
2023-06-27T11:34:01.956Z,36.82
2023-06-27T11:36:29.981Z,32.99
2023-06-27T11:38:57.844Z,36.81
2023-06-27T11:41:26.528Z,34.04
2023-06-27T11:43:56.824Z,33.28
2023-06-27T11:46:24.693Z,36.44
2023-06-27T11:48:53.015Z,36.50
2023-06-27T11:51:21.150Z,35.06
2023-06-27T11:53:51.377Z,35.68
2023-06-27T11:56:22.702Z,35.40
2023-06-27T11:58:53.755Z,35.41
2023-06-27T12:01:24.950Z,36.34
2023-06-27T12:03:54.452Z,35.10
2023-06-27T12:06:31.642Z,34.96
2023-06-27T12:08:59.981Z,34.26
2023-06-27T12:11:36.172Z,36.11
2023-06-27T12:14:09.715Z,35.41
2023-06-27T12:16:40.799Z,35.40
2023-06-27T12:19:13.007Z,35.21
2023-06-27T12:21:40.980Z,34.15
2023-06-27T12:24:09.004Z,34.11
2023-06-27T12:26:36.809Z,36.59
2023-06-27T12:29:07.335Z,35.06
2023-06-27T12:31:37.655Z,33.59
2023-06-27T12:34:08.913Z,35.53
2023-06-27T12:36:40.147Z,34.79
2023-06-27T12:39:08.839Z,32.36
2023-06-27T12:41:36.981Z,34.77
2023-06-27T12:44:04.978Z,33.36
2023-06-27T12:46:35.923Z,34.08
2023-06-27T12:49:04.162Z,33.62
2023-06-27T12:51:32.040Z,33.67
2023-06-27T12:53:59.812Z,32.25
2023-06-27T12:56:27.820Z,32.37
2023-06-27T12:58:56.966Z,33.32
2023-06-27T13:01:25.905Z,33.14
2023-06-27T13:03:54.025Z,32.12
2023-06-27T13:06:23.235Z,31.94
2023-06-27T13:08:53.040Z,32.88
2023-06-27T13:11:21.878Z,33.77
2023-06-27T13:13:51.938Z,34.10
2023-06-27T13:16:22.452Z,32.15
2023-06-27T13:18:54.375Z,32.58
2023-06-27T13:21:23.207Z,32.99
2023-06-27T13:23:51.228Z,31.97
2023-06-27T13:26:18.840Z,29.47
2023-06-27T13:28:46.548Z,31.38
2023-06-27T13:31:15.238Z,29.64
2023-06-27T13:33:43.090Z,32.88
2023-06-27T13:36:12.350Z,30.74
2023-06-27T13:38:41.574Z,31.08
2023-06-27T13:41:09.544Z,33.57
2023-06-27T13:43:37.277Z,31.25
2023-06-27T13:46:05.181Z,31.54
2023-06-27T13:48:34.365Z,33.19
2023-06-27T13:51:02.446Z,32.87
2023-06-27T13:53:30.488Z,32.19
2023-06-27T13:55:59.676Z,30.38
2023-06-27T13:58:28.783Z,30.06
2023-06-27T14:00:58.298Z,30.95
2023-06-27T14:03:27.550Z,28.19
2023-06-27T14:05:56.076Z,29.00
2023-06-27T14:08:23.888Z,29.68
2023-06-27T14:10:53.158Z,30.32
2023-06-27T14:13:21.017Z,28.35
2023-06-27T14:15:49.018Z,31.26
2023-06-27T14:18:19.240Z,30.31
2023-06-27T14:20:47.046Z,29.89
2023-06-27T14:23:15.026Z,30.95
2023-06-27T14:25:42.941Z,30.61
2023-06-27T14:28:10.848Z,29.28
2023-06-27T14:30:39.110Z,29.70
2023-06-27T14:33:08.165Z,29.49
2023-06-27T14:35:36.508Z,29.70
2023-06-27T14:38:04.370Z,30.79
2023-06-27T14:40:32.069Z,30.92
2023-06-27T14:43:02.956Z,32.08
2023-06-27T14:45:30.769Z,29.14
2023-06-27T14:47:58.970Z,31.17
2023-06-27T14:50:27.106Z,31.86
2023-06-27T14:52:54.859Z,34.11
2023-06-27T14:55:22.847Z,35.55
2023-06-27T14:57:50.645Z,35.40
2023-06-27T15:00:20.879Z,36.63
2023-06-27T15:02:49.503Z,36.28
2023-06-27T15:05:20.070Z,37.33
2023-06-27T15:07:48.349Z,35.85
2023-06-27T15:10:16.416Z,36.69
2023-06-27T15:12:44.584Z,37.36
2023-06-27T15:15:12.340Z,37.62
2023-06-27T15:17:40.153Z,36.90
2023-06-27T15:20:08.993Z,38.40
2023-06-27T15:22:36.962Z,38.50
2023-06-27T15:25:05.296Z,38.20
2023-06-27T15:27:34.554Z,38.39
2023-06-27T15:30:02.457Z,37.34
2023-06-27T15:32:30.389Z,37.51
2023-06-27T15:34:59.258Z,37.60
2023-06-27T15:37:27.228Z,36.51
2023-06-27T15:39:55.279Z,36.77
2023-06-27T15:42:23.418Z,37.31
2023-06-27T15:44:51.373Z,37.86
2023-06-27T15:47:21.306Z,38.22
2023-06-27T15:49:51.913Z,38.26
2023-06-27T15:52:19.739Z,37.82
2023-06-27T15:54:47.602Z,38.96
2023-06-27T15:57:15.315Z,38.56
2023-06-27T15:59:43.120Z,39.80
2023-06-27T16:02:10.883Z,39.28
2023-06-27T16:04:39.463Z,40.84
2023-06-27T16:07:07.480Z,40.68
2023-06-27T16:09:35.955Z,40.47
2023-06-27T16:12:05.160Z,40.41
2023-06-27T16:14:32.867Z,40.83
2023-06-27T16:17:00.700Z,42.50
2023-06-27T16:19:34.020Z,43.04
2023-06-27T16:22:03.437Z,42.28
2023-06-27T16:24:31.233Z,41.86
2023-06-27T16:26:59.171Z,43.12
2023-06-27T16:29:26.762Z,43.73
2023-06-27T16:31:54.723Z,44.13
2023-06-27T16:34:22.609Z,43.83
2023-06-27T16:36:50.499Z,44.43
2023-06-27T16:39:18.469Z,43.80
2023-06-27T16:41:46.333Z,44.66
2023-06-27T16:44:14.102Z,45.61
2023-06-27T16:46:41.965Z,46.03
2023-06-27T16:49:09.626Z,46.94
2023-06-27T16:51:37.239Z,46.46
2023-06-27T16:54:05.017Z,47.02
2023-06-27T16:56:32.520Z,47.95
2023-06-27T16:59:00.148Z,49.14
2023-06-27T17:01:30.545Z,48.22
2023-06-27T17:03:58.137Z,48.84
2023-06-27T17:06:25.789Z,50.12
2023-06-27T17:08:53.423Z,49.61
2023-06-27T17:11:21.175Z,49.24
2023-06-27T17:13:49.518Z,49.97
2023-06-27T17:16:17.337Z,50.18
2023-06-27T17:18:45.117Z,51.54
2023-06-27T17:21:12.741Z,51.24
2023-06-27T17:23:40.348Z,51.42
2023-06-27T17:26:07.908Z,51.77
2023-06-27T17:28:35.506Z,52.07
2023-06-27T17:31:03.233Z,52.23
2023-06-27T17:33:32.777Z,51.94
2023-06-27T17:36:00.679Z,52.51
2023-06-27T17:38:28.689Z,50.72
2023-06-27T17:40:58.273Z,51.02
2023-06-27T17:43:28.685Z,52.41
2023-06-27T17:45:58.967Z,53.58
2023-06-27T17:48:26.809Z,53.63
2023-06-27T17:50:54.535Z,53.12
2023-06-27T17:53:22.347Z,54.40
2023-06-27T17:55:50.037Z,54.67
2023-06-27T17:58:17.801Z,54.33
2023-06-27T18:00:46.102Z,55.23
2023-06-27T18:03:15.533Z,56.23
2023-06-27T18:05:43.446Z,56.95
2023-06-27T18:08:18.893Z,56.80
2023-06-27T18:10:46.610Z,59.66
2023-06-27T18:13:14.352Z,58.94
2023-06-27T18:15:42.388Z,62.35
2023-06-27T18:18:13.357Z,62.65
2023-06-27T18:20:51.411Z,63.56
2023-06-27T18:23:19.027Z,64.59
2023-06-27T18:25:47.463Z,66.29
2023-06-27T18:28:15.202Z,66.29
2023-06-27T18:30:43.096Z,65.77
2023-06-27T18:33:12.158Z,65.21
2023-06-27T18:35:39.931Z,67.27
2023-06-27T18:38:07.548Z,67.78
2023-06-27T18:40:35.361Z,67.81
2023-06-27T18:43:02.960Z,67.68
2023-06-27T18:45:30.720Z,69.51
2023-06-27T18:47:59.124Z,69.16
2023-06-27T18:50:29.159Z,69.79
2023-06-27T18:52:57.034Z,70.60
2023-06-27T18:55:25.971Z,71.80
2023-06-27T18:57:54.690Z,70.09
2023-06-27T19:00:22.736Z,70.69
2023-06-27T19:02:51.036Z,72.00
2023-06-27T19:05:19.465Z,70.14
2023-06-27T19:07:47.230Z,70.50
2023-06-27T19:10:15.619Z,70.48
2023-06-27T19:12:43.177Z,70.93
2023-06-27T19:15:11.245Z,70.68
2023-06-27T19:17:39.894Z,71.20
2023-06-27T19:20:09.277Z,70.49
2023-06-27T19:22:38.323Z,70.64
2023-06-27T19:25:06.729Z,72.25
2023-06-27T19:27:36.881Z,71.82
2023-06-27T19:30:05.020Z,70.82
2023-06-27T19:32:35.092Z,72.07
2023-06-27T19:35:06.933Z,74.09
2023-06-27T19:37:35.442Z,75.79
2023-06-27T19:40:04.032Z,76.99
2023-06-27T19:42:32.136Z,78.14
2023-06-27T19:45:00.483Z,79.01
2023-06-27T19:47:29.625Z,78.36
2023-06-27T19:49:57.467Z,78.50
2023-06-27T19:52:25.102Z,78.67
2023-06-27T19:54:54.695Z,79.28
2023-06-27T19:57:24.087Z,78.47
2023-06-27T19:59:51.720Z,78.33
2023-06-27T20:02:19.422Z,79.02
2023-06-27T20:04:47.154Z,79.64
2023-06-27T20:07:14.902Z,77.50
2023-06-27T20:09:44.767Z,78.06
2023-06-27T20:12:13.983Z,77.38
2023-06-27T20:14:41.654Z,77.82
2023-06-27T20:17:12.887Z,79.70
2023-06-27T20:19:40.905Z,78.56
2023-06-27T20:22:10.101Z,75.27
2023-06-27T20:24:41.366Z,76.49
2023-06-27T20:27:09.874Z,75.37
2023-06-27T20:29:37.685Z,76.52
2023-06-27T20:32:06.152Z,78.28
2023-06-27T20:34:34.018Z,79.28
2023-06-27T20:37:02.244Z,79.51
2023-06-27T20:39:32.061Z,78.34
2023-06-27T20:42:03.322Z,79.09
2023-06-27T20:44:31.581Z,81.08
2023-06-27T20:46:59.441Z,80.50
2023-06-27T20:49:27.145Z,82.29
2023-06-27T20:51:54.853Z,82.14
2023-06-27T20:54:22.524Z,81.33
2023-06-27T20:56:51.077Z,80.02
2023-06-27T20:59:19.643Z,82.09
2023-06-27T21:01:48.648Z,80.74
2023-06-27T21:04:17.023Z,78.64
2023-06-27T21:06:44.969Z,77.18
2023-06-27T21:09:14.427Z,77.96
2023-06-27T21:11:42.179Z,80.10
2023-06-27T21:14:10.721Z,78.50
2023-06-27T21:16:38.975Z,79.06
2023-06-27T21:19:06.685Z,78.73
2023-06-27T21:21:36.447Z,79.40
2023-06-27T21:24:04.328Z,79.49
2023-06-27T21:26:32.026Z,80.35
2023-06-27T21:28:59.712Z,81.91
2023-06-27T21:31:27.600Z,83.42
2023-06-27T21:33:55.299Z,84.37
2023-06-27T21:36:23.232Z,84.73
2023-06-27T21:38:54.831Z,84.96
2023-06-27T21:41:22.698Z,85.78
2023-06-27T21:43:50.568Z,86.61
2023-06-27T21:46:18.374Z,87.25
2023-06-27T21:48:46.248Z,85.58
2023-06-27T21:51:14.824Z,86.31
2023-06-27T21:53:42.587Z,86.04
2023-06-27T21:56:10.449Z,86.50
2023-06-27T21:58:38.213Z,86.88
2023-06-27T22:01:06.285Z,87.71
2023-06-27T22:03:40.060Z,88.13
2023-06-27T22:06:07.993Z,88.79
2023-06-27T22:08:35.916Z,88.17
2023-06-27T22:11:03.797Z,88.07
2023-06-27T22:13:34.420Z,86.42
2023-06-27T22:16:02.372Z,87.92
2023-06-27T22:18:30.285Z,88.07
2023-06-27T22:20:58.462Z,88.06
2023-06-27T22:23:26.275Z,88.80
2023-06-27T22:25:54.258Z,89.18
2023-06-27T22:28:22.001Z,91.04
2023-06-27T22:30:49.877Z,91.09
2023-06-27T22:33:17.672Z,91.99
2023-06-27T22:35:45.546Z,93.11
2023-06-27T22:38:13.255Z,91.72
2023-06-27T22:40:41.500Z,90.45
2023-06-27T22:43:09.387Z,91.58
2023-06-27T22:45:39.310Z,92.53
2023-06-27T22:48:07.691Z,92.96
2023-06-27T22:50:35.395Z,94.41
2023-06-27T22:53:03.311Z,94.09
2023-06-27T22:55:31.630Z,93.09
2023-06-27T22:57:59.341Z,90.65
2023-06-27T23:00:27.156Z,87.90
2023-06-27T23:02:55.053Z,88.16
2023-06-27T23:05:22.841Z,89.44
2023-06-27T23:07:50.551Z,91.66
2023-06-27T23:10:18.249Z,92.07
2023-06-27T23:12:46.078Z,89.88
2023-06-27T23:15:13.986Z,89.72
2023-06-27T23:17:41.671Z,91.96
2023-06-27T23:20:11.433Z,92.07
2023-06-27T23:22:39.950Z,93.06
2023-06-27T23:25:10.424Z,92.62
2023-06-27T23:27:41.924Z,92.05
2023-06-27T23:30:10.433Z,92.14
2023-06-27T23:32:40.934Z,89.42
2023-06-27T23:35:09.030Z,90.54
2023-06-27T23:37:37.352Z,93.38
2023-06-27T23:40:06.936Z,95.47
2023-06-27T23:42:35.033Z,93.16
2023-06-27T23:45:02.892Z,93.95
2023-06-27T23:47:30.781Z,94.22
2023-06-27T23:49:58.555Z,92.13
2023-06-27T23:52:26.736Z,93.79
2023-06-27T23:54:54.600Z,90.75
2023-06-27T23:57:22.380Z,91.95
2023-06-27T23:59:50.304Z,91.77
